Mariner Of The Seas — C6FV9 — position and weather

sailwx.info

Track history (hours):
 
Tides and Currents Weather Stations Pressure Air Temp Water Temp Dewpoint Dewpoint Depression Visibility Wind Speed Wind Dir Waves Ship Positions

Mariner Of The Seas

Operator: Royal Caribbean Cruises Ltd

Last reported at 2016-Jun-24 09:33 UTC. Time now 2016-Jun-25 17:57 UTC.
Position N 31°23' E 121°35'.

Type: Passenger vessel. MMSI: 311493000.

Date/timePositionNaut miles runAvg speedWind from/ knotsBaromVisibWave heightAir tempDewpointWater temp
2016-Jun-24 09:33N 31°23' E 121°35'5 2.4
2016-Jun-24 07:27N 31°25' E 121°30'0 0.0
2016-Jun-24 03:33N 31°25' E 121°30'0 0.0
2016-Jun-24 01:33N 31°25' E 121°30'0 0.0
2016-Jun-24 00:33N 31°25' E 121°30'0 0.0
2016-Jun-23 23:03N 31°25' E 121°30'0 0.0
2016-Jun-23 22:09N 31°25' E 121°30'0 0.0
2016-Jun-23 21:33N 31°25' E 121°30'5 4.3
2016-Jun-23 20:29N 31°23' E 121°35'1010.5
2016-Jun-23 19:33N 31°19' E 121°45'1612.7
2016-Jun-23 18:18N 31°14' E 122°03'  
2016-Jun-20 09:30N 31°18' E 121°46'1212.3
2016-Jun-20 08:32N 31°24' E 121°33'3 2.9
2016-Jun-20 07:32N 31°25' E 121°30'0 0.0
2016-Jun-20 06:32N 31°25' E 121°30'0 0.0
2016-Jun-20 05:32N 31°25' E 121°30'0 0.0
2016-Jun-20 04:32N 31°25' E 121°30'0 0.0
2016-Jun-20 03:29N 31°25' E 121°30'0 0.0
2016-Jun-20 02:32N 31°25' E 121°30'0 0.0
2016-Jun-20 01:32N 31°25' E 121°30'0 0.0
2016-Jun-20 00:32N 31°25' E 121°30'0 0.0
2016-Jun-19 23:32N 31°25' E 121°30'0 0.0
2016-Jun-19 22:32N 31°25' E 121°30'0 0.0
2016-Jun-19 21:26N 31°25' E 121°30'0 0.0
2016-Jun-19 20:20N 31°25' E 121°30'0 0.0
2016-Jun-19 18:32N 31°25' E 121°30'0 0.0
2016-Jun-19 17:32N 31°25' E 121°30'1 1.1
2016-Jun-19 16:33N 31°24' E 121°31'1010.1
2016-Jun-19 15:33N 31°20' E 121°42'  
2016-Jun-17 10:32N 31°19' E 121°45'1212.0
2016-Jun-17 09:33N 31°24' E 121°33'2 1.8
2016-Jun-17 08:24N 31°25' E 121°30'0 0.0
2016-Jun-17 07:33N 31°25' E 121°30'0 0.0
2016-Jun-17 06:33N 31°25' E 121°30'0 0.0
2016-Jun-17 05:33N 31°25' E 121°30'0 0.0
2016-Jun-17 04:33N 31°25' E 121°30'0 0.0
2016-Jun-17 03:33N 31°25' E 121°30'0 0.0
2016-Jun-17 02:33N 31°25' E 121°30'0 0.0
2016-Jun-17 01:33N 31°25' E 121°30'0 0.0
2016-Jun-17 00:33N 31°25' E 121°30'0 0.3
2016-Jun-16 23:33N 31°25' E 121°30'9 9.1
2016-Jun-16 22:33N 31°21' E 121°40'1110.9
2016-Jun-16 21:32N 31°16' E 121°52'1211.0
2016-Jun-16 20:26N 31°14' E 122°06'1011.9
2016-Jun-16 19:33N 31°08' E 122°15'  
Track history (hours):
 
Tides and Currents Weather Stations Pressure Air Temp Water Temp Dewpoint Dewpoint Depression Visibility Wind Speed Wind Dir Waves Ship Positions

Mariner Of The Seas

Operator: Royal Caribbean Cruises Ltd

Last reported at 2016-Jun-24 09:33 UTC. Time now 2016-Jun-25 17:57 UTC.
Position N 31°23' E 121°35'.

Type: Passenger vessel. MMSI: 311493000.

Date/timePositionNaut miles runAvg speedWind from/ knotsBaromVisibWave heightAir tempDewpointWater temp
2016-Jun-24 09:33N 31°23' E 121°35'5 2.4
2016-Jun-24 07:27N 31°25' E 121°30'0 0.0
2016-Jun-24 03:33N 31°25' E 121°30'0 0.0
2016-Jun-24 01:33N 31°25' E 121°30'0 0.0
2016-Jun-24 00:33N 31°25' E 121°30'0 0.0
2016-Jun-23 23:03N 31°25' E 121°30'0 0.0
2016-Jun-23 22:09N 31°25' E 121°30'0 0.0
2016-Jun-23 21:33N 31°25' E 121°30'5 4.3
2016-Jun-23 20:29N 31°23' E 121°35'1010.5
2016-Jun-23 19:33N 31°19' E 121°45'1612.7
2016-Jun-23 18:18N 31°14' E 122°03'  
2016-Jun-20 09:30N 31°18' E 121°46'1212.3
2016-Jun-20 08:32N 31°24' E 121°33'3 2.9
2016-Jun-20 07:32N 31°25' E 121°30'0 0.0
2016-Jun-20 06:32N 31°25' E 121°30'0 0.0
2016-Jun-20 05:32N 31°25' E 121°30'0 0.0
2016-Jun-20 04:32N 31°25' E 121°30'0 0.0
2016-Jun-20 03:29N 31°25' E 121°30'0 0.0
2016-Jun-20 02:32N 31°25' E 121°30'0 0.0
2016-Jun-20 01:32N 31°25' E 121°30'0 0.0
2016-Jun-20 00:32N 31°25' E 121°30'0 0.0
2016-Jun-19 23:32N 31°25' E 121°30'0 0.0
2016-Jun-19 22:32N 31°25' E 121°30'0 0.0
2016-Jun-19 21:26N 31°25' E 121°30'0 0.0
2016-Jun-19 20:20N 31°25' E 121°30'0 0.0
2016-Jun-19 18:32N 31°25' E 121°30'0 0.0
2016-Jun-19 17:32N 31°25' E 121°30'1 1.1
2016-Jun-19 16:33N 31°24' E 121°31'1010.1
2016-Jun-19 15:33N 31°20' E 121°42'  
2016-Jun-17 10:32N 31°19' E 121°45'1212.0
2016-Jun-17 09:33N 31°24' E 121°33'2 1.8
2016-Jun-17 08:24N 31°25' E 121°30'0 0.0
2016-Jun-17 07:33N 31°25' E 121°30'0 0.0
2016-Jun-17 06:33N 31°25' E 121°30'0 0.0
2016-Jun-17 05:33N 31°25' E 121°30'0 0.0
2016-Jun-17 04:33N 31°25' E 121°30'0 0.0
2016-Jun-17 03:33N 31°25' E 121°30'0 0.0
2016-Jun-17 02:33N 31°25' E 121°30'0 0.0
2016-Jun-17 01:33N 31°25' E 121°30'0 0.0
2016-Jun-17 00:33N 31°25' E 121°30'0 0.3
2016-Jun-16 23:33N 31°25' E 121°30'9 9.1
2016-Jun-16 22:33N 31°21' E 121°40'1110.9
2016-Jun-16 21:32N 31°16' E 121°52'1211.0
2016-Jun-16 20:26N 31°14' E 122°06'1011.9
2016-Jun-16 19:33N 31°08' E 122°15'  

Dump ship's entire track history